sensor_id;sensor_type;location;lat;lon;timestamp;pressure;altitude;pressure_sealevel;temperature;humidity
16525;BME280;8375;33.594;-117.718;2022-08-21T00:02:24;99926.13;;;24.28;62.13
16525;BME280;8375;33.594;-117.718;2022-08-21T00:04:57;99932.47;;;24.27;62.82
16525;BME280;8375;33.594;-117.718;2022-08-21T00:07:39;99932.22;;;24.03;62.90
16525;BME280;8375;33.594;-117.718;2022-08-21T00:10:10;99938.50;;;23.63;64.45
16525;BME280;8375;33.594;-117.718;2022-08-21T00:12:39;99945.94;;;23.41;65.18
16525;BME280;8375;33.594;-117.718;2022-08-21T00:15:10;99939.00;;;23.40;65.29
16525;BME280;8375;33.594;-117.718;2022-08-21T00:17:59;99951.47;;;23.26;65.64
16525;BME280;8375;33.594;-117.718;2022-08-21T00:20:35;99955.13;;;23.18;65.91
16525;BME280;8375;33.594;-117.718;2022-08-21T00:23:08;99951.47;;;23.33;65.55
16525;BME280;8375;33.594;-117.718;2022-08-21T00:25:38;99939.97;;;23.52;65.17
16525;BME280;8375;33.594;-117.718;2022-08-21T00:28:08;99938.47;;;23.70;64.69
16525;BME280;8375;33.594;-117.718;2022-08-21T00:30:37;99952.09;;;23.80;63.84
16525;BME280;8375;33.594;-117.718;2022-08-21T00:33:10;99953.16;;;23.66;64.31
16525;BME280;8375;33.594;-117.718;2022-08-21T00:35:42;99947.31;;;23.50;64.98
16525;BME280;8375;33.594;-117.718;2022-08-21T00:38:11;99953.47;;;23.37;65.67
16525;BME280;8375;33.594;-117.718;2022-08-21T00:40:45;99947.13;;;23.45;65.29
16525;BME280;8375;33.594;-117.718;2022-08-21T00:43:17;99946.91;;;23.53;65.12
16525;BME280;8375;33.594;-117.718;2022-08-21T00:45:50;99953.69;;;23.29;65.73
16525;BME280;8375;33.594;-117.718;2022-08-21T00:48:24;99939.88;;;23.00;66.88
16525;BME280;8375;33.594;-117.718;2022-08-21T00:50:58;99945.81;;;22.89;67.40
16525;BME280;8375;33.594;-117.718;2022-08-21T00:53:29;99944.59;;;22.84;68.01
16525;BME280;8375;33.594;-117.718;2022-08-21T00:55:59;99939.50;;;22.76;68.01
16525;BME280;8375;33.594;-117.718;2022-08-21T00:58:29;99937.28;;;22.80;68.17
16525;BME280;8375;33.594;-117.718;2022-08-21T01:01:03;99934.63;;;22.80;67.82
16525;BME280;8375;33.594;-117.718;2022-08-21T01:03:34;99936.66;;;22.58;68.39
16525;BME280;8375;33.594;-117.718;2022-08-21T01:06:04;99941.50;;;22.34;69.61
16525;BME280;8375;33.594;-117.718;2022-08-21T01:08:34;99942.56;;;22.39;69.44
16525;BME280;8375;33.594;-117.718;2022-08-21T01:11:03;99944.59;;;22.58;68.72
16525;BME280;8375;33.594;-117.718;2022-08-21T01:13:35;99947.03;;;22.66;68.34
16525;BME280;8375;33.594;-117.718;2022-08-21T01:16:12;99945.41;;;22.85;67.61
16525;BME280;8375;33.594;-117.718;2022-08-21T01:18:44;99940.75;;;22.53;68.55
16525;BME280;8375;33.594;-117.718;2022-08-21T01:21:17;99936.25;;;22.61;68.75
16525;BME280;8375;33.594;-117.718;2022-08-21T01:23:48;99945.22;;;22.53;69.00
16525;BME280;8375;33.594;-117.718;2022-08-21T01:26:20;99948.50;;;22.55;68.81
16525;BME280;8375;33.594;-117.718;2022-08-21T01:28:52;99948.88;;;22.59;68.76
16525;BME280;8375;33.594;-117.718;2022-08-21T01:31:26;99945.63;;;22.56;68.72
16525;BME280;8375;33.594;-117.718;2022-08-21T01:33:55;99944.41;;;22.46;69.36
16525;BME280;8375;33.594;-117.718;2022-08-21T01:36:27;99953.72;;;22.28;69.99
16525;BME280;8375;33.594;-117.718;2022-08-21T01:38:56;99947.63;;;22.34;69.98
16525;BME280;8375;33.594;-117.718;2022-08-21T01:41:25;99945.81;;;22.41;69.60
16525;BME280;8375;33.594;-117.718;2022-08-21T01:43:57;99952.50;;;22.24;70.24
16525;BME280;8375;33.594;-117.718;2022-08-21T01:46:26;99942.94;;;22.23;70.45
16525;BME280;8375;33.594;-117.718;2022-08-21T01:48:55;99949.75;;;21.90;71.44
16525;BME280;8375;33.594;-117.718;2022-08-21T01:51:26;99955.06;;;21.48;73.27
16525;BME280;8375;33.594;-117.718;2022-08-21T01:53:55;99960.53;;;21.40;74.02
16525;BME280;8375;33.594;-117.718;2022-08-21T01:56:24;99960.44;;;21.27;74.45
16525;BME280;8375;33.594;-117.718;2022-08-21T01:58:54;99962.81;;;21.15;75.14
16525;BME280;8375;33.594;-117.718;2022-08-21T02:01:23;99971.28;;;21.10;75.88
16525;BME280;8375;33.594;-117.718;2022-08-21T02:03:51;99971.13;;;21.18;75.81
16525;BME280;8375;33.594;-117.718;2022-08-21T02:06:20;99982.22;;;21.35;74.58
16525;BME280;8375;33.594;-117.718;2022-08-21T02:08:50;99986.78;;;21.20;74.82
16525;BME280;8375;33.594;-117.718;2022-08-21T02:11:19;99988.59;;;21.19;74.77
16525;BME280;8375;33.594;-117.718;2022-08-21T02:13:48;99992.44;;;21.17;74.88
16525;BME280;8375;33.594;-117.718;2022-08-21T02:16:17;100009.19;;;21.02;75.37
16525;BME280;8375;33.594;-117.718;2022-08-21T02:18:46;100007.19;;;21.04;75.04
16525;BME280;8375;33.594;-117.718;2022-08-21T02:21:15;100003.38;;;20.85;75.83
16525;BME280;8375;33.594;-117.718;2022-08-21T02:23:46;100014.78;;;20.92;75.94
16525;BME280;8375;33.594;-117.718;2022-08-21T02:26:17;100019.00;;;21.08;75.11
16525;BME280;8375;33.594;-117.718;2022-08-21T02:28:46;100017.03;;;20.95;75.53
16525;BME280;8375;33.594;-117.718;2022-08-21T02:31:15;100012.41;;;20.98;75.18
16525;BME280;8375;33.594;-117.718;2022-08-21T02:33:44;100016.97;;;21.10;74.94
16525;BME280;8375;33.594;-117.718;2022-08-21T02:36:13;100021.81;;;21.07;75.06
16525;BME280;8375;33.594;-117.718;2022-08-21T02:38:42;100030.97;;;21.11;74.75
16525;BME280;8375;33.594;-117.718;2022-08-21T02:41:15;100028.81;;;20.93;75.42
16525;BME280;8375;33.594;-117.718;2022-08-21T02:43:46;100035.59;;;21.02;75.32
16525;BME280;8375;33.594;-117.718;2022-08-21T02:46:18;100038.84;;;21.04;75.17
16525;BME280;8375;33.594;-117.718;2022-08-21T02:48:47;100045.06;;;20.96;75.03
16525;BME280;8375;33.594;-117.718;2022-08-21T02:51:18;100035.75;;;21.01;75.03
16525;BME280;8375;33.594;-117.718;2022-08-21T02:53:47;100047.94;;;21.02;75.07
16525;BME280;8375;33.594;-117.718;2022-08-21T02:56:19;100045.16;;;20.81;75.64
16525;BME280;8375;33.594;-117.718;2022-08-21T02:58:51;100053.47;;;20.63;76.30
16525;BME280;8375;33.594;-117.718;2022-08-21T03:01:20;100060.22;;;20.51;77.16
16525;BME280;8375;33.594;-117.718;2022-08-21T03:03:49;100067.88;;;20.46;77.89
16525;BME280;8375;33.594;-117.718;2022-08-21T03:06:19;100063.03;;;20.86;76.48
16525;BME280;8375;33.594;-117.718;2022-08-21T03:08:49;100068.34;;;21.15;75.00
16525;BME280;8375;33.594;-117.718;2022-08-21T03:11:17;100071.56;;;21.38;73.68
16525;BME280;8375;33.594;-117.718;2022-08-21T03:13:50;100069.88;;;21.59;72.84
16525;BME280;8375;33.594;-117.718;2022-08-21T03:16:21;100086.13;;;21.85;71.71
16525;BME280;8375;33.594;-117.718;2022-08-21T03:18:50;100094.75;;;22.00;70.99
16525;BME280;8375;33.594;-117.718;2022-08-21T03:21:19;100091.81;;;21.88;71.41
16525;BME280;8375;33.594;-117.718;2022-08-21T03:23:48;100098.94;;;21.88;71.30
16525;BME280;8375;33.594;-117.718;2022-08-21T03:26:17;100105.41;;;21.85;71.45
16525;BME280;8375;33.594;-117.718;2022-08-21T03:28:45;100115.75;;;21.80;71.65
16525;BME280;8375;33.594;-117.718;2022-08-21T03:31:16;100111.34;;;21.59;72.50
16525;BME280;8375;33.594;-117.718;2022-08-21T03:33:45;100125.56;;;21.58;72.90
16525;BME280;8375;33.594;-117.718;2022-08-21T03:36:13;100124.22;;;21.68;71.37
16525;BME280;8375;33.594;-117.718;2022-08-21T03:38:43;100125.16;;;21.32;73.12
16525;BME280;8375;33.594;-117.718;2022-08-21T03:41:12;100123.66;;;21.01;74.60
16525;BME280;8375;33.594;-117.718;2022-08-21T03:43:41;100130.63;;;20.87;75.04
16525;BME280;8375;33.594;-117.718;2022-08-21T03:46:11;100129.81;;;20.72;76.89
16525;BME280;8375;33.594;-117.718;2022-08-21T03:48:41;100139.59;;;20.56;76.98
16525;BME280;8375;33.594;-117.718;2022-08-21T03:51:10;100140.94;;;20.67;76.73
16525;BME280;8375;33.594;-117.718;2022-08-21T03:53:39;100154.97;;;20.52;78.28
16525;BME280;8375;33.594;-117.718;2022-08-21T03:56:08;100141.38;;;20.19;79.21
16525;BME280;8375;33.594;-117.718;2022-08-21T03:58:36;100153.75;;;20.18;79.68
16525;BME280;8375;33.594;-117.718;2022-08-21T04:01:06;100156.91;;;20.14;79.67
16525;BME280;8375;33.594;-117.718;2022-08-21T04:03:36;100158.00;;;20.19;79.63
16525;BME280;8375;33.594;-117.718;2022-08-21T04:06:09;100159.63;;;20.20;79.46
16525;BME280;8375;33.594;-117.718;2022-08-21T04:08:37;100150.38;;;20.25;79.09
16525;BME280;8375;33.594;-117.718;2022-08-21T04:11:08;100158.53;;;20.30;79.22
16525;BME280;8375;33.594;-117.718;2022-08-21T04:13:38;100162.88;;;20.37;78.86
16525;BME280;8375;33.594;-117.718;2022-08-21T04:16:07;100166.88;;;20.33;79.10
16525;BME280;8375;33.594;-117.718;2022-08-21T04:18:36;100168.81;;;20.25;79.30
16525;BME280;8375;33.594;-117.718;2022-08-21T04:21:05;100165.81;;;20.28;79.54
16525;BME280;8375;33.594;-117.718;2022-08-21T04:23:36;100171.97;;;20.20;80.07
16525;BME280;8375;33.594;-117.718;2022-08-21T04:26:05;100180.81;;;20.12;80.37
16525;BME280;8375;33.594;-117.718;2022-08-21T04:28:33;100173.91;;;20.11;80.66
16525;BME280;8375;33.594;-117.718;2022-08-21T04:31:02;100181.34;;;20.22;80.07
16525;BME280;8375;33.594;-117.718;2022-08-21T04:33:31;100179.88;;;20.20;80.37
16525;BME280;8375;33.594;-117.718;2022-08-21T04:36:00;100175.81;;;20.17;80.39
16525;BME280;8375;33.594;-117.718;2022-08-21T04:38:28;100178.25;;;20.19;80.36
16525;BME280;8375;33.594;-117.718;2022-08-21T04:40:59;100179.16;;;20.26;79.97
16525;BME280;8375;33.594;-117.718;2022-08-21T04:43:28;100186.44;;;20.39;79.59
16525;BME280;8375;33.594;-117.718;2022-08-21T04:45:56;100190.97;;;20.45;79.43
16525;BME280;8375;33.594;-117.718;2022-08-21T04:48:27;100185.69;;;20.30;79.78
16525;BME280;8375;33.594;-117.718;2022-08-21T04:50:57;100195.25;;;20.31;79.72
16525;BME280;8375;33.594;-117.718;2022-08-21T04:53:33;100191.88;;;20.37;79.66
16525;BME280;8375;33.594;-117.718;2022-08-21T04:56:07;100191.50;;;20.41;79.61
16525;BME280;8375;33.594;-117.718;2022-08-21T04:58:37;100192.97;;;20.28;80.23
16525;BME280;8375;33.594;-117.718;2022-08-21T05:01:11;100200.41;;;20.10;81.11
16525;BME280;8375;33.594;-117.718;2022-08-21T05:03:41;100198.84;;;19.85;82.35
16525;BME280;8375;33.594;-117.718;2022-08-21T05:06:11;100189.59;;;19.89;82.04
16525;BME280;8375;33.594;-117.718;2022-08-21T05:08:41;100190.09;;;19.85;82.77
16525;BME280;8375;33.594;-117.718;2022-08-21T05:11:13;100190.88;;;19.93;82.17
16525;BME280;8375;33.594;-117.718;2022-08-21T05:13:42;100185.06;;;19.98;82.08
16525;BME280;8375;33.594;-117.718;2022-08-21T05:16:11;100197.91;;;19.78;82.79
16525;BME280;8375;33.594;-117.718;2022-08-21T05:18:39;100193.25;;;19.65;83.86
16525;BME280;8375;33.594;-117.718;2022-08-21T05:21:08;100200.84;;;19.60;84.31
16525;BME280;8375;33.594;-117.718;2022-08-21T05:23:37;100197.41;;;19.59;84.28
16525;BME280;8375;33.594;-117.718;2022-08-21T05:26:05;100198.16;;;19.68;83.76
16525;BME280;8375;33.594;-117.718;2022-08-21T05:28:35;100207.25;;;19.81;83.44
16525;BME280;8375;33.594;-117.718;2022-08-21T05:31:04;100207.53;;;19.71;83.99
16525;BME280;8375;33.594;-117.718;2022-08-21T05:33:33;100206.25;;;19.67;83.83
16525;BME280;8375;33.594;-117.718;2022-08-21T05:36:02;100209.50;;;19.69;83.96
16525;BME280;8375;33.594;-117.718;2022-08-21T05:38:32;100201.19;;;19.80;83.30
16525;BME280;8375;33.594;-117.718;2022-08-21T05:41:01;100200.47;;;19.86;82.87
16525;BME280;8375;33.594;-117.718;2022-08-21T05:43:30;100195.31;;;19.93;82.90
16525;BME280;8375;33.594;-117.718;2022-08-21T05:46:05;100194.53;;;19.92;82.62
16525;BME280;8375;33.594;-117.718;2022-08-21T05:48:34;100190.06;;;19.93;82.68
16525;BME280;8375;33.594;-117.718;2022-08-21T05:51:06;100194.88;;;19.89;83.03
16525;BME280;8375;33.594;-117.718;2022-08-21T05:53:35;100192.88;;;19.91;82.94
16525;BME280;8375;33.594;-117.718;2022-08-21T05:56:04;100189.81;;;19.79;83.69
16525;BME280;8375;33.594;-117.718;2022-08-21T05:58:33;100194.34;;;19.71;84.28
16525;BME280;8375;33.594;-117.718;2022-08-21T06:01:04;100208.53;;;19.70;84.35
16525;BME280;8375;33.594;-117.718;2022-08-21T06:03:37;100205.69;;;19.71;84.27
16525;BME280;8375;33.594;-117.718;2022-08-21T06:06:07;100209.97;;;19.72;84.70
16525;BME280;8375;33.594;-117.718;2022-08-21T06:08:36;100205.88;;;19.70;84.56
16525;BME280;8375;33.594;-117.718;2022-08-21T06:11:06;100208.88;;;19.67;84.61
16525;BME280;8375;33.594;-117.718;2022-08-21T06:13:35;100207.88;;;19.68;84.69
16525;BME280;8375;33.594;-117.718;2022-08-21T06:16:08;100208.88;;;19.67;85.03
16525;BME280;8375;33.594;-117.718;2022-08-21T06:18:38;100215.66;;;19.61;85.19
16525;BME280;8375;33.594;-117.718;2022-08-21T06:21:07;100209.47;;;19.54;85.34
16525;BME280;8375;33.594;-117.718;2022-08-21T06:23:36;100208.94;;;19.58;85.38
16525;BME280;8375;33.594;-117.718;2022-08-21T06:26:06;100201.22;;;19.57;85.53
16525;BME280;8375;33.594;-117.718;2022-08-21T06:28:37;100202.75;;;19.51;85.79
16525;BME280;8375;33.594;-117.718;2022-08-21T06:31:13;100206.38;;;19.50;85.81
16525;BME280;8375;33.594;-117.718;2022-08-21T06:33:42;100207.19;;;19.50;85.78
16525;BME280;8375;33.594;-117.718;2022-08-21T06:36:11;100215.72;;;19.53;85.74
16525;BME280;8375;33.594;-117.718;2022-08-21T06:38:40;100207.47;;;19.56;85.90
16525;BME280;8375;33.594;-117.718;2022-08-21T06:41:09;100202.31;;;19.62;85.22
16525;BME280;8375;33.594;-117.718;2022-08-21T06:43:37;100202.41;;;19.69;85.01
16525;BME280;8375;33.594;-117.718;2022-08-21T06:46:06;100202.34;;;19.77;84.75
16525;BME280;8375;33.594;-117.718;2022-08-21T06:48:37;100206.91;;;19.84;83.87
16525;BME280;8375;33.594;-117.718;2022-08-21T06:51:05;100213.31;;;19.89;83.78
16525;BME280;8375;33.594;-117.718;2022-08-21T06:53:40;100210.75;;;19.96;83.28
16525;BME280;8375;33.594;-117.718;2022-08-21T06:56:17;100212.41;;;19.97;83.14
16525;BME280;8375;33.594;-117.718;2022-08-21T06:58:46;100214.03;;;19.98;83.13
16525;BME280;8375;33.594;-117.718;2022-08-21T07:01:19;100216.75;;;19.90;83.42
16525;BME280;8375;33.594;-117.718;2022-08-21T07:03:51;100216.00;;;19.81;83.92
16525;BME280;8375;33.594;-117.718;2022-08-21T07:06:19;100220.44;;;19.81;83.87
16525;BME280;8375;33.594;-117.718;2022-08-21T07:08:49;100233.44;;;19.82;83.89
16525;BME280;8375;33.594;-117.718;2022-08-21T07:11:21;100229.69;;;19.76;84.21
16525;BME280;8375;33.594;-117.718;2022-08-21T07:13:51;100227.41;;;19.73;84.69
16525;BME280;8375;33.594;-117.718;2022-08-21T07:16:21;100226.41;;;19.74;84.36
16525;BME280;8375;33.594;-117.718;2022-08-21T07:18:51;100223.78;;;19.74;84.63
16525;BME280;8375;33.594;-117.718;2022-08-21T07:21:20;100221.69;;;19.70;85.03
16525;BME280;8375;33.594;-117.718;2022-08-21T07:23:50;100226.66;;;19.64;85.17
16525;BME280;8375;33.594;-117.718;2022-08-21T07:26:20;100220.13;;;19.60;85.42
16525;BME280;8375;33.594;-117.718;2022-08-21T07:28:50;100226.88;;;19.55;86.00
16525;BME280;8375;33.594;-117.718;2022-08-21T07:31:20;100225.53;;;19.59;85.52
16525;BME280;8375;33.594;-117.718;2022-08-21T07:33:51;100230.28;;;19.63;85.41
16525;BME280;8375;33.594;-117.718;2022-08-21T07:36:20;100232.72;;;19.65;85.33
16525;BME280;8375;33.594;-117.718;2022-08-21T07:38:49;100233.72;;;19.64;85.37
16525;BME280;8375;33.594;-117.718;2022-08-21T07:41:20;100229.00;;;19.59;85.55
16525;BME280;8375;33.594;-117.718;2022-08-21T07:43:49;100234.56;;;19.64;85.68
16525;BME280;8375;33.594;-117.718;2022-08-21T07:46:18;100233.03;;;19.70;85.02
16525;BME280;8375;33.594;-117.718;2022-08-21T07:48:47;100235.13;;;19.75;84.58
16525;BME280;8375;33.594;-117.718;2022-08-21T07:51:19;100234.78;;;19.78;84.60
16525;BME280;8375;33.594;-117.718;2022-08-21T07:53:49;100228.69;;;19.77;84.47
16525;BME280;8375;33.594;-117.718;2022-08-21T07:56:18;100232.94;;;19.78;84.42
16525;BME280;8375;33.594;-117.718;2022-08-21T07:58:47;100236.41;;;19.79;84.59
16525;BME280;8375;33.594;-117.718;2022-08-21T08:01:16;100235.13;;;19.75;84.81
16525;BME280;8375;33.594;-117.718;2022-08-21T08:03:45;100233.16;;;19.77;84.74
16525;BME280;8375;33.594;-117.718;2022-08-21T08:06:14;100231.66;;;19.74;84.56
16525;BME280;8375;33.594;-117.718;2022-08-21T08:08:47;100244.25;;;19.64;85.24
16525;BME280;8375;33.594;-117.718;2022-08-21T08:11:15;100245.91;;;19.65;85.45
16525;BME280;8375;33.594;-117.718;2022-08-21T08:13:47;100241.91;;;19.69;85.12
16525;BME280;8375;33.594;-117.718;2022-08-21T08:16:16;100243.56;;;19.70;85.43
16525;BME280;8375;33.594;-117.718;2022-08-21T08:18:45;100245.84;;;19.73;84.75
16525;BME280;8375;33.594;-117.718;2022-08-21T08:21:15;100244.13;;;19.81;84.72
16525;BME280;8375;33.594;-117.718;2022-08-21T08:23:46;100245.88;;;19.88;84.68
16525;BME280;8375;33.594;-117.718;2022-08-21T08:26:15;100239.47;;;19.91;84.53
16525;BME280;8375;33.594;-117.718;2022-08-21T08:28:44;100244.91;;;19.89;84.06
16525;BME280;8375;33.594;-117.718;2022-08-21T08:31:13;100244.59;;;19.84;85.02
16525;BME280;8375;33.594;-117.718;2022-08-21T08:33:42;100240.56;;;19.73;85.73
16525;BME280;8375;33.594;-117.718;2022-08-21T08:36:15;100242.56;;;19.71;85.58
16525;BME280;8375;33.594;-117.718;2022-08-21T08:38:47;100240.00;;;19.63;86.16
16525;BME280;8375;33.594;-117.718;2022-08-21T08:41:17;100242.63;;;19.63;86.65
16525;BME280;8375;33.594;-117.718;2022-08-21T08:43:50;100233.63;;;19.57;87.11
16525;BME280;8375;33.594;-117.718;2022-08-21T08:46:28;100232.34;;;19.53;87.26
16525;BME280;8375;33.594;-117.718;2022-08-21T08:49:02;100232.16;;;19.55;86.97
16525;BME280;8375;33.594;-117.718;2022-08-21T08:51:39;100228.53;;;19.56;86.81
16525;BME280;8375;33.594;-117.718;2022-08-21T08:54:14;100222.47;;;19.55;87.13
16525;BME280;8375;33.594;-117.718;2022-08-21T08:56:44;100231.22;;;19.47;87.67
16525;BME280;8375;33.594;-117.718;2022-08-21T08:59:16;100235.50;;;19.48;88.11
16525;BME280;8375;33.594;-117.718;2022-08-21T09:01:47;100228.25;;;19.50;87.96
16525;BME280;8375;33.594;-117.718;2022-08-21T09:04:22;100229.53;;;19.55;87.47
16525;BME280;8375;33.594;-117.718;2022-08-21T09:07:04;100228.25;;;19.50;87.70
16525;BME280;8375;33.594;-117.718;2022-08-21T09:09:47;100225.97;;;19.47;87.78
16525;BME280;8375;33.594;-117.718;2022-08-21T09:12:24;100228.25;;;19.50;87.53
16525;BME280;8375;33.594;-117.718;2022-08-21T09:15:03;100226.31;;;19.44;87.79
16525;BME280;8375;33.594;-117.718;2022-08-21T09:17:42;100231.22;;;19.47;87.29
16525;BME280;8375;33.594;-117.718;2022-08-21T09:20:22;100234.19;;;19.44;87.58
16525;BME280;8375;33.594;-117.718;2022-08-21T09:22:59;100234.41;;;19.43;87.87
16525;BME280;8375;33.594;-117.718;2022-08-21T09:25:34;100235.84;;;19.45;87.61
16525;BME280;8375;33.594;-117.718;2022-08-21T09:28:08;100233.41;;;19.44;87.86
16525;BME280;8375;33.594;-117.718;2022-08-21T09:30:39;100231.22;;;19.47;87.53
16525;BME280;8375;33.594;-117.718;2022-08-21T09:33:12;100227.09;;;19.53;87.34
16525;BME280;8375;33.594;-117.718;2022-08-21T09:35:51;100230.72;;;19.52;87.60
16525;BME280;8375;33.594;-117.718;2022-08-21T09:38:27;100236.63;;;19.54;87.38
16525;BME280;8375;33.594;-117.718;2022-08-21T09:41:02;100236.78;;;19.53;87.67
16525;BME280;8375;33.594;-117.718;2022-08-21T09:43:32;100233.97;;;19.54;87.41
16525;BME280;8375;33.594;-117.718;2022-08-21T09:46:09;100234.78;;;19.55;87.73
16525;BME280;8375;33.594;-117.718;2022-08-21T09:48:45;100237.59;;;19.53;87.62
16525;BME280;8375;33.594;-117.718;2022-08-21T09:51:17;100233.78;;;19.56;87.52
16525;BME280;8375;33.594;-117.718;2022-08-21T09:53:49;100235.31;;;19.50;87.92
16525;BME280;8375;33.594;-117.718;2022-08-21T09:56:26;100228.88;;;19.53;87.48
16525;BME280;8375;33.594;-117.718;2022-08-21T09:59:18;100234.78;;;19.55;87.44
16525;BME280;8375;33.594;-117.718;2022-08-21T10:01:49;100240.88;;;19.55;86.99
16525;BME280;8375;33.594;-117.718;2022-08-21T10:04:23;100236.63;;;19.54;87.62
16525;BME280;8375;33.594;-117.718;2022-08-21T10:06:52;100237.13;;;19.49;87.79
16525;BME280;8375;33.594;-117.718;2022-08-21T10:09:21;100235.50;;;19.48;87.79
16525;BME280;8375;33.594;-117.718;2022-08-21T10:12:05;100237.66;;;19.45;88.27
16525;BME280;8375;33.594;-117.718;2022-08-21T10:14:47;100249.00;;;19.45;87.95
16525;BME280;8375;33.594;-117.718;2022-08-21T10:17:30;100251.63;;;19.45;87.91
16525;BME280;8375;33.594;-117.718;2022-08-21T10:20:05;100242.88;;;19.53;87.65
16525;BME280;8375;33.594;-117.718;2022-08-21T10:22:40;100244.88;;;19.51;87.67
16525;BME280;8375;33.594;-117.718;2022-08-21T10:25:19;100256.84;;;19.54;87.15
16525;BME280;8375;33.594;-117.718;2022-08-21T10:27:59;100260.19;;;19.47;87.54
16525;BME280;8375;33.594;-117.718;2022-08-21T10:30:36;100261.00;;;19.48;87.56
16525;BME280;8375;33.594;-117.718;2022-08-21T10:33:13;100260.47;;;19.53;87.18
16525;BME280;8375;33.594;-117.718;2022-08-21T10:35:52;100255.69;;;19.56;87.44
16525;BME280;8375;33.594;-117.718;2022-08-21T10:38:45;100266.31;;;19.63;87.10
16525;BME280;8375;33.594;-117.718;2022-08-21T10:41:24;100268.78;;;19.64;86.92
16525;BME280;8375;33.594;-117.718;2022-08-21T10:44:08;100265.63;;;19.69;86.76
16525;BME280;8375;33.594;-117.718;2022-08-21T10:46:47;100258.34;;;19.71;86.36
16525;BME280;8375;33.594;-117.718;2022-08-21T10:49:24;100263.47;;;19.73;86.41
16525;BME280;8375;33.594;-117.718;2022-08-21T10:52:17;100258.66;;;19.76;86.31
16525;BME280;8375;33.594;-117.718;2022-08-21T10:54:52;100268.19;;;19.77;86.13
16525;BME280;8375;33.594;-117.718;2022-08-21T10:57:29;100263.34;;;19.66;86.74
16525;BME280;8375;33.594;-117.718;2022-08-21T11:00:05;100266.59;;;19.68;86.86
16525;BME280;8375;33.594;-117.718;2022-08-21T11:02:40;100274.84;;;19.65;86.85
16525;BME280;8375;33.594;-117.718;2022-08-21T11:05:13;100283.31;;;19.60;86.87
16525;BME280;8375;33.594;-117.718;2022-08-21T11:07:47;100278.53;;;19.56;87.38
16525;BME280;8375;33.594;-117.718;2022-08-21T11:10:21;100294.34;;;19.56;87.58
16525;BME280;8375;33.594;-117.718;2022-08-21T11:12:53;100289.06;;;19.56;87.34
16525;BME280;8375;33.594;-117.718;2022-08-21T11:15:33;100287.28;;;19.56;87.74
16525;BME280;8375;33.594;-117.718;2022-08-21T11:18:15;100286.78;;;19.53;87.31
16525;BME280;8375;33.594;-117.718;2022-08-21T11:20:50;100283.34;;;19.52;87.54
16525;BME280;8375;33.594;-117.718;2022-08-21T11:23:25;100282.53;;;19.52;88.16
16525;BME280;8375;33.594;-117.718;2022-08-21T11:26:01;100287.13;;;19.49;88.20
16525;BME280;8375;33.594;-117.718;2022-08-21T11:28:33;100300.31;;;19.49;88.34
16525;BME280;8375;33.594;-117.718;2022-08-21T11:31:11;100295.03;;;19.49;88.38
16525;BME280;8375;33.594;-117.718;2022-08-21T11:33:52;100296.22;;;19.47;88.62
16525;BME280;8375;33.594;-117.718;2022-08-21T11:36:30;100294.44;;;19.39;88.81
16525;BME280;8375;33.594;-117.718;2022-08-21T11:39:08;100303.63;;;19.43;88.44
16525;BME280;8375;33.594;-117.718;2022-08-21T11:41:46;100299.38;;;19.42;88.42
16525;BME280;8375;33.594;-117.718;2022-08-21T11:44:25;100302.19;;;19.41;88.70
16525;BME280;8375;33.594;-117.718;2022-08-21T11:47:03;100316.97;;;19.42;88.65
16525;BME280;8375;33.594;-117.718;2022-08-21T11:49:46;100309.53;;;19.45;88.65
16525;BME280;8375;33.594;-117.718;2022-08-21T11:52:23;100315.44;;;19.47;88.68
16525;BME280;8375;33.594;-117.718;2022-08-21T11:54:56;100313.16;;;19.44;88.67
16525;BME280;8375;33.594;-117.718;2022-08-21T11:57:31;100328.50;;;19.41;89.15
16525;BME280;8375;33.594;-117.718;2022-08-21T12:00:03;100324.03;;;19.41;89.04
16525;BME280;8375;33.594;-117.718;2022-08-21T12:02:41;100333.88;;;19.47;89.04
16525;BME280;8375;33.594;-117.718;2022-08-21T12:05:27;100334.53;;;19.49;88.32
16525;BME280;8375;33.594;-117.718;2022-08-21T12:08:03;100332.25;;;19.46;88.79
16525;BME280;8375;33.594;-117.718;2022-08-21T12:10:34;100337.38;;;19.40;89.47
16525;BME280;8375;33.594;-117.718;2022-08-21T12:13:08;100342.31;;;19.43;89.36
16525;BME280;8375;33.594;-117.718;2022-08-21T12:15:38;100346.75;;;19.42;89.69
16525;BME280;8375;33.594;-117.718;2022-08-21T12:18:21;100354.00;;;19.40;89.89
16525;BME280;8375;33.594;-117.718;2022-08-21T12:21:00;100347.91;;;19.40;89.91
16525;BME280;8375;33.594;-117.718;2022-08-21T12:23:31;100353.19;;;19.40;89.55
16525;BME280;8375;33.594;-117.718;2022-08-21T12:26:22;100357.25;;;19.42;89.19
16525;BME280;8375;33.594;-117.718;2022-08-21T12:28:51;100357.97;;;19.36;89.90
16525;BME280;8375;33.594;-117.718;2022-08-21T12:31:31;100361.09;;;19.40;89.51
16525;BME280;8375;33.594;-117.718;2022-08-21T12:34:02;100358.78;;;19.37;89.44
16525;BME280;8375;33.594;-117.718;2022-08-21T12:36:44;100364.84;;;19.37;89.74
16525;BME280;8375;33.594;-117.718;2022-08-21T12:39:15;100366.00;;;19.43;88.87
16525;BME280;8375;33.594;-117.718;2022-08-21T12:41:48;100363.53;;;19.41;89.44
16525;BME280;8375;33.594;-117.718;2022-08-21T12:44:22;100374.88;;;19.42;89.60
16525;BME280;8375;33.594;-117.718;2022-08-21T12:46:57;100380.16;;;19.42;89.27
16525;BME280;8375;33.594;-117.718;2022-08-21T12:49:34;100378.84;;;19.38;89.77
16525;BME280;8375;33.594;-117.718;2022-08-21T12:52:11;100378.66;;;19.39;89.79
16525;BME280;8375;33.594;-117.718;2022-08-21T12:54:44;100385.41;;;19.42;89.88
16525;BME280;8375;33.594;-117.718;2022-08-21T12:57:19;100394.94;;;19.43;89.48
16525;BME280;8375;33.594;-117.718;2022-08-21T12:59:53;100392.97;;;19.45;89.08